sensor_id;sensor_type;location;lat;lon;timestamp;pressure;altitude;pressure_sealevel;temperature;humidity
60817;BME280;51921;51.518;-3.188;2023-05-20T00:01:20;102455.24;;;8.40;100.00
60817;BME280;51921;51.518;-3.188;2023-05-20T00:03:45;102453.64;;;8.55;100.00
60817;BME280;51921;51.518;-3.188;2023-05-20T00:06:11;102453.50;;;8.67;100.00
60817;BME280;51921;51.518;-3.188;2023-05-20T00:08:36;102453.38;;;8.61;100.00
60817;BME280;51921;51.518;-3.188;2023-05-20T00:11:02;102450.61;;;8.25;100.00
60817;BME280;51921;51.518;-3.188;2023-05-20T00:13:27;102448.03;;;8.36;100.00
60817;BME280;51921;51.518;-3.188;2023-05-20T00:15:53;102442.30;;;9.13;100.00
60817;BME280;51921;51.518;-3.188;2023-05-20T00:18:18;102444.91;;;8.13;100.00
60817;BME280;51921;51.518;-3.188;2023-05-20T00:20:44;102446.50;;;8.65;100.00
60817;BME280;51921;51.518;-3.188;2023-05-20T00:23:09;102449.46;;;8.06;100.00
60817;BME280;51921;51.518;-3.188;2023-05-20T00:25:35;102453.90;;;8.11;100.00
60817;BME280;51921;51.518;-3.188;2023-05-20T00:28:00;102449.50;;;8.29;100.00
60817;BME280;51921;51.518;-3.188;2023-05-20T00:30:26;102447.70;;;8.57;100.00
60817;BME280;51921;51.518;-3.188;2023-05-20T00:32:51;102453.32;;;8.36;100.00
60817;BME280;51921;51.518;-3.188;2023-05-20T00:35:16;102453.94;;;8.14;100.00
60817;BME280;51921;51.518;-3.188;2023-05-20T00:37:42;102452.73;;;8.79;100.00
60817;BME280;51921;51.518;-3.188;2023-05-20T00:40:07;102457.20;;;8.19;100.00
60817;BME280;51921;51.518;-3.188;2023-05-20T00:42:32;102453.36;;;8.76;100.00
60817;BME280;51921;51.518;-3.188;2023-05-20T00:44:59;102457.32;;;9.30;100.00
60817;BME280;51921;51.518;-3.188;2023-05-20T00:47:26;102459.80;;;9.00;100.00
60817;BME280;51921;51.518;-3.188;2023-05-20T00:49:49;102458.24;;;10.76;100.00
60817;BME280;51921;51.518;-3.188;2023-05-20T00:52:14;102456.63;;;10.78;100.00
60817;BME280;51921;51.518;-3.188;2023-05-20T00:54:39;102455.20;;;8.26;100.00
60817;BME280;51921;51.518;-3.188;2023-05-20T00:57:06;102452.24;;;8.76;100.00
60817;BME280;51921;51.518;-3.188;2023-05-20T00:59:30;102456.55;;;8.65;100.00
60817;BME280;51921;51.518;-3.188;2023-05-20T01:01:55;102450.15;;;9.44;100.00
60817;BME280;51921;51.518;-3.188;2023-05-20T01:04:20;102454.24;;;8.29;100.00
60817;BME280;51921;51.518;-3.188;2023-05-20T01:06:46;102451.64;;;7.97;100.00
60817;BME280;51921;51.518;-3.188;2023-05-20T01:09:12;102450.48;;;8.13;100.00
60817;BME280;51921;51.518;-3.188;2023-05-20T01:11:40;102450.32;;;7.78;100.00
60817;BME280;51921;51.518;-3.188;2023-05-20T01:14:06;102451.41;;;7.92;100.00
60817;BME280;51921;51.518;-3.188;2023-05-20T01:16:29;102444.21;;;8.03;100.00
60817;BME280;51921;51.518;-3.188;2023-05-20T01:18:54;102439.50;;;8.14;100.00
60817;BME280;51921;51.518;-3.188;2023-05-20T01:21:18;102434.61;;;7.82;100.00
60817;BME280;51921;51.518;-3.188;2023-05-20T01:23:44;102434.77;;;7.68;100.00
60817;BME280;51921;51.518;-3.188;2023-05-20T01:26:09;102431.52;;;8.21;100.00
60817;BME280;51921;51.518;-3.188;2023-05-20T01:28:36;102429.50;;;8.16;100.00
60817;BME280;51921;51.518;-3.188;2023-05-20T01:31:02;102428.27;;;8.42;100.00
60817;BME280;51921;51.518;-3.188;2023-05-20T01:33:28;102431.55;;;7.65;100.00
60817;BME280;51921;51.518;-3.188;2023-05-20T01:35:52;102430.39;;;7.85;100.00
60817;BME280;51921;51.518;-3.188;2023-05-20T01:38:18;102426.65;;;7.87;100.00
60817;BME280;51921;51.518;-3.188;2023-05-20T01:40:43;102428.01;;;7.68;100.00
60817;BME280;51921;51.518;-3.188;2023-05-20T01:43:08;102421.63;;;8.44;100.00
60817;BME280;51921;51.518;-3.188;2023-05-20T01:45:33;102424.06;;;7.92;100.00
60817;BME280;51921;51.518;-3.188;2023-05-20T01:47:58;102425.81;;;8.66;100.00
60817;BME280;51921;51.518;-3.188;2023-05-20T01:50:24;102429.35;;;8.03;100.00
60817;BME280;51921;51.518;-3.188;2023-05-20T01:52:49;102433.42;;;9.13;100.00
60817;BME280;51921;51.518;-3.188;2023-05-20T01:55:15;102433.78;;;7.99;100.00
60817;BME280;51921;51.518;-3.188;2023-05-20T01:57:40;102433.18;;;7.60;100.00
60817;BME280;51921;51.518;-3.188;2023-05-20T02:00:07;102433.42;;;8.08;100.00
60817;BME280;51921;51.518;-3.188;2023-05-20T02:02:31;102430.03;;;9.22;100.00
60817;BME280;51921;51.518;-3.188;2023-05-20T02:04:57;102431.44;;;8.27;100.00
60817;BME280;51921;51.518;-3.188;2023-05-20T02:07:22;102433.63;;;8.05;100.00
60817;BME280;51921;51.518;-3.188;2023-05-20T02:09:48;102440.80;;;7.85;100.00
60817;BME280;51921;51.518;-3.188;2023-05-20T02:12:14;102440.62;;;7.37;100.00
60817;BME280;51921;51.518;-3.188;2023-05-20T02:14:39;102440.11;;;7.34;100.00
60817;BME280;51921;51.518;-3.188;2023-05-20T02:17:05;102440.06;;;7.35;100.00
60817;BME280;51921;51.518;-3.188;2023-05-20T02:19:30;102435.52;;;7.04;100.00
60817;BME280;51921;51.518;-3.188;2023-05-20T02:21:56;102431.90;;;6.81;100.00
60817;BME280;51921;51.518;-3.188;2023-05-20T02:24:21;102436.93;;;6.98;100.00
60817;BME280;51921;51.518;-3.188;2023-05-20T02:26:47;102435.90;;;6.99;100.00
60817;BME280;51921;51.518;-3.188;2023-05-20T02:29:12;102434.96;;;7.22;100.00
60817;BME280;51921;51.518;-3.188;2023-05-20T02:31:38;102436.24;;;6.95;100.00
60817;BME280;51921;51.518;-3.188;2023-05-20T02:34:03;102434.74;;;7.00;100.00
60817;BME280;51921;51.518;-3.188;2023-05-20T02:36:29;102438.15;;;7.34;100.00
60817;BME280;51921;51.518;-3.188;2023-05-20T02:38:54;102439.99;;;7.14;100.00
60817;BME280;51921;51.518;-3.188;2023-05-20T02:41:20;102434.85;;;7.07;100.00
60817;BME280;51921;51.518;-3.188;2023-05-20T02:43:45;102435.14;;;7.42;100.00
60817;BME280;51921;51.518;-3.188;2023-05-20T02:46:11;102438.03;;;6.61;100.00
60817;BME280;51921;51.518;-3.188;2023-05-20T02:48:36;102435.64;;;6.72;100.00
60817;BME280;51921;51.518;-3.188;2023-05-20T02:51:01;102436.25;;;6.74;100.00
60817;BME280;51921;51.518;-3.188;2023-05-20T02:53:27;102433.05;;;6.58;100.00
60817;BME280;51921;51.518;-3.188;2023-05-20T02:55:53;102434.93;;;7.12;100.00
60817;BME280;51921;51.518;-3.188;2023-05-20T02:58:19;102433.72;;;7.23;100.00
60817;BME280;51921;51.518;-3.188;2023-05-20T03:00:44;102434.63;;;6.71;100.00
60817;BME280;51921;51.518;-3.188;2023-05-20T03:03:09;102436.52;;;7.01;100.00
60817;BME280;51921;51.518;-3.188;2023-05-20T03:05:35;102438.45;;;7.31;100.00
60817;BME280;51921;51.518;-3.188;2023-05-20T03:08:01;102438.17;;;6.96;100.00
60817;BME280;51921;51.518;-3.188;2023-05-20T03:10:26;102437.50;;;7.11;100.00
60817;BME280;51921;51.518;-3.188;2023-05-20T03:12:52;102437.86;;;6.59;100.00
60817;BME280;51921;51.518;-3.188;2023-05-20T03:15:17;102437.77;;;6.61;100.00
60817;BME280;51921;51.518;-3.188;2023-05-20T03:17:42;102437.78;;;6.58;100.00
60817;BME280;51921;51.518;-3.188;2023-05-20T03:20:08;102438.87;;;6.74;100.00
60817;BME280;51921;51.518;-3.188;2023-05-20T03:22:33;102436.74;;;6.34;100.00
60817;BME280;51921;51.518;-3.188;2023-05-20T03:24:58;102433.68;;;6.33;100.00
60817;BME280;51921;51.518;-3.188;2023-05-20T03:27:25;102431.53;;;6.27;100.00
60817;BME280;51921;51.518;-3.188;2023-05-20T03:29:49;102428.22;;;6.39;100.00
60817;BME280;51921;51.518;-3.188;2023-05-20T03:32:15;102427.52;;;6.71;100.00
60817;BME280;51921;51.518;-3.188;2023-05-20T03:34:41;102421.32;;;6.32;100.00
60817;BME280;51921;51.518;-3.188;2023-05-20T03:37:07;102422.79;;;6.18;100.00
60817;BME280;51921;51.518;-3.188;2023-05-20T03:39:31;102422.65;;;6.61;100.00
60817;BME280;51921;51.518;-3.188;2023-05-20T03:41:56;102423.01;;;6.41;100.00
60817;BME280;51921;51.518;-3.188;2023-05-20T03:44:22;102422.98;;;6.64;100.00
60817;BME280;51921;51.518;-3.188;2023-05-20T03:46:47;102421.07;;;6.48;100.00
60817;BME280;51921;51.518;-3.188;2023-05-20T03:49:13;102422.01;;;6.69;100.00
60817;BME280;51921;51.518;-3.188;2023-05-20T03:51:38;102420.44;;;6.56;100.00
60817;BME280;51921;51.518;-3.188;2023-05-20T03:54:04;102419.95;;;6.04;100.00
60817;BME280;51921;51.518;-3.188;2023-05-20T03:56:29;102423.44;;;6.35;100.00
60817;BME280;51921;51.518;-3.188;2023-05-20T03:58:55;102421.66;;;6.62;100.00
60817;BME280;51921;51.518;-3.188;2023-05-20T04:01:20;102417.19;;;6.27;100.00
60817;BME280;51921;51.518;-3.188;2023-05-20T04:03:46;102416.49;;;6.42;100.00
60817;BME280;51921;51.518;-3.188;2023-05-20T04:06:12;102417.34;;;6.75;100.00
60817;BME280;51921;51.518;-3.188;2023-05-20T04:08:37;102416.49;;;6.40;100.00
60817;BME280;51921;51.518;-3.188;2023-05-20T04:11:02;102417.57;;;6.18;100.00
60817;BME280;51921;51.518;-3.188;2023-05-20T04:13:27;102419.59;;;6.20;100.00
60817;BME280;51921;51.518;-3.188;2023-05-20T04:15:53;102424.15;;;6.92;100.00
60817;BME280;51921;51.518;-3.188;2023-05-20T04:18:19;102419.21;;;6.55;100.00
60817;BME280;51921;51.518;-3.188;2023-05-20T04:20:45;102417.31;;;6.42;100.00
60817;BME280;51921;51.518;-3.188;2023-05-20T04:23:10;102418.93;;;6.52;100.00
60817;BME280;51921;51.518;-3.188;2023-05-20T04:25:35;102416.13;;;6.53;100.00
60817;BME280;51921;51.518;-3.188;2023-05-20T04:28:01;102413.51;;;7.00;100.00
60817;BME280;51921;51.518;-3.188;2023-05-20T04:30:26;102414.07;;;6.92;100.00
60817;BME280;51921;51.518;-3.188;2023-05-20T04:32:53;102417.85;;;6.78;100.00
60817;BME280;51921;51.518;-3.188;2023-05-20T04:35:18;102416.44;;;6.24;100.00
60817;BME280;51921;51.518;-3.188;2023-05-20T04:37:43;102416.35;;;6.65;100.00
60817;BME280;51921;51.518;-3.188;2023-05-20T04:40:09;102418.39;;;6.72;100.00
60817;BME280;51921;51.518;-3.188;2023-05-20T04:42:34;102414.06;;;6.67;100.00
60817;BME280;51921;51.518;-3.188;2023-05-20T04:44:59;102412.14;;;6.47;100.00
60817;BME280;51921;51.518;-3.188;2023-05-20T04:47:24;102404.61;;;7.49;100.00
60817;BME280;51921;51.518;-3.188;2023-05-20T04:49:50;102407.67;;;7.92;100.00
60817;BME280;51921;51.518;-3.188;2023-05-20T04:52:15;102412.95;;;7.06;100.00
60817;BME280;51921;51.518;-3.188;2023-05-20T04:54:40;102414.78;;;6.34;100.00
60817;BME280;51921;51.518;-3.188;2023-05-20T04:57:06;102417.65;;;6.18;100.00
60817;BME280;51921;51.518;-3.188;2023-05-20T04:59:31;102416.98;;;6.58;100.00
60817;BME280;51921;51.518;-3.188;2023-05-20T05:01:56;102417.70;;;6.56;100.00
60817;BME280;51921;51.518;-3.188;2023-05-20T05:04:22;102420.07;;;6.32;100.00
60817;BME280;51921;51.518;-3.188;2023-05-20T05:06:47;102425.30;;;6.60;100.00
60817;BME280;51921;51.518;-3.188;2023-05-20T05:09:12;102423.11;;;7.42;100.00
60817;BME280;51921;51.518;-3.188;2023-05-20T05:11:38;102420.86;;;7.05;100.00
60817;BME280;51921;51.518;-3.188;2023-05-20T05:14:03;102417.57;;;7.37;100.00
60817;BME280;51921;51.518;-3.188;2023-05-20T05:16:29;102421.50;;;6.96;100.00
60817;BME280;51921;51.518;-3.188;2023-05-20T05:18:54;102427.48;;;6.81;100.00
60817;BME280;51921;51.518;-3.188;2023-05-20T05:21:20;102427.94;;;6.43;100.00
60817;BME280;51921;51.518;-3.188;2023-05-20T05:23:45;102426.27;;;5.99;100.00
60817;BME280;51921;51.518;-3.188;2023-05-20T05:26:10;102430.64;;;6.74;100.00
60817;BME280;51921;51.518;-3.188;2023-05-20T05:28:36;102431.14;;;5.89;100.00
60817;BME280;51921;51.518;-3.188;2023-05-20T05:31:01;102438.49;;;5.75;100.00
60817;BME280;51921;51.518;-3.188;2023-05-20T05:33:27;102433.45;;;5.88;100.00
60817;BME280;51921;51.518;-3.188;2023-05-20T05:35:52;102429.62;;;6.50;100.00
60817;BME280;51921;51.518;-3.188;2023-05-20T05:38:17;102431.14;;;6.35;100.00
60817;BME280;51921;51.518;-3.188;2023-05-20T05:40:43;102430.96;;;6.82;100.00
60817;BME280;51921;51.518;-3.188;2023-05-20T05:43:08;102427.44;;;6.43;100.00
60817;BME280;51921;51.518;-3.188;2023-05-20T05:45:34;102424.94;;;5.99;100.00
60817;BME280;51921;51.518;-3.188;2023-05-20T05:47:59;102426.03;;;6.12;100.00
60817;BME280;51921;51.518;-3.188;2023-05-20T05:50:24;102429.05;;;5.84;100.00
60817;BME280;51921;51.518;-3.188;2023-05-20T05:52:50;102428.14;;;6.15;100.00
60817;BME280;51921;51.518;-3.188;2023-05-20T05:55:16;102427.70;;;6.58;100.00
60817;BME280;51921;51.518;-3.188;2023-05-20T05:57:41;102428.87;;;5.74;100.00
60817;BME280;51921;51.518;-3.188;2023-05-20T06:00:07;102426.41;;;6.04;100.00
60817;BME280;51921;51.518;-3.188;2023-05-20T06:02:32;102424.47;;;6.21;100.00
60817;BME280;51921;51.518;-3.188;2023-05-20T06:04:57;102422.68;;;6.33;100.00
60817;BME280;51921;51.518;-3.188;2023-05-20T06:07:22;102427.34;;;5.83;100.00
60817;BME280;51921;51.518;-3.188;2023-05-20T06:09:48;102423.98;;;6.48;100.00
60817;BME280;51921;51.518;-3.188;2023-05-20T06:12:13;102423.04;;;6.33;100.00
60817;BME280;51921;51.518;-3.188;2023-05-20T06:14:39;102420.40;;;6.38;100.00
60817;BME280;51921;51.518;-3.188;2023-05-20T06:17:04;102420.52;;;7.27;100.00
60817;BME280;51921;51.518;-3.188;2023-05-20T06:19:29;102418.42;;;6.17;100.00
60817;BME280;51921;51.518;-3.188;2023-05-20T06:21:55;102417.29;;;6.37;100.00
60817;BME280;51921;51.518;-3.188;2023-05-20T06:24:19;102420.01;;;6.65;100.00
60817;BME280;51921;51.518;-3.188;2023-05-20T06:26:44;102423.41;;;6.34;100.00
60817;BME280;51921;51.518;-3.188;2023-05-20T06:29:10;102430.43;;;6.99;100.00
60817;BME280;51921;51.518;-3.188;2023-05-20T06:31:36;102428.81;;;6.53;100.00
60817;BME280;51921;51.518;-3.188;2023-05-20T06:34:02;102425.94;;;6.46;100.00
60817;BME280;51921;51.518;-3.188;2023-05-20T06:36:27;102421.55;;;6.35;100.00
60817;BME280;51921;51.518;-3.188;2023-05-20T06:38:53;102422.80;;;6.60;100.00
60817;BME280;51921;51.518;-3.188;2023-05-20T06:41:18;102416.96;;;6.55;100.00
60817;BME280;51921;51.518;-3.188;2023-05-20T06:43:43;102418.01;;;6.49;100.00
60817;BME280;51921;51.518;-3.188;2023-05-20T06:46:09;102421.59;;;6.62;100.00
60817;BME280;51921;51.518;-3.188;2023-05-20T06:48:34;102416.19;;;6.93;100.00
60817;BME280;51921;51.518;-3.188;2023-05-20T06:51:00;102418.65;;;6.82;100.00
60817;BME280;51921;51.518;-3.188;2023-05-20T06:53:25;102416.82;;;6.67;100.00
60817;BME280;51921;51.518;-3.188;2023-05-20T06:55:52;102414.88;;;7.14;100.00
60817;BME280;51921;51.518;-3.188;2023-05-20T06:58:16;102407.15;;;7.79;100.00
60817;BME280;51921;51.518;-3.188;2023-05-20T07:00:42;102409.15;;;7.51;100.00
60817;BME280;51921;51.518;-3.188;2023-05-20T07:03:07;102412.27;;;7.56;100.00
60817;BME280;51921;51.518;-3.188;2023-05-20T07:05:32;102415.50;;;7.19;100.00
60817;BME280;51921;51.518;-3.188;2023-05-20T07:07:57;102410.05;;;7.02;100.00
60817;BME280;51921;51.518;-3.188;2023-05-20T07:10:23;102410.10;;;7.33;100.00
60817;BME280;51921;51.518;-3.188;2023-05-20T07:12:48;102406.70;;;7.07;100.00
60817;BME280;51921;51.518;-3.188;2023-05-20T07:15:14;102403.94;;;8.74;100.00
60817;BME280;51921;51.518;-3.188;2023-05-20T07:17:39;102406.31;;;9.47;100.00
60817;BME280;51921;51.518;-3.188;2023-05-20T07:20:05;102401.51;;;10.38;100.00
60817;BME280;51921;51.518;-3.188;2023-05-20T07:22:30;102405.04;;;8.41;100.00
60817;BME280;51921;51.518;-3.188;2023-05-20T07:24:55;102399.59;;;9.66;100.00
60817;BME280;51921;51.518;-3.188;2023-05-20T07:27:20;102396.47;;;10.42;95.94
60817;BME280;51921;51.518;-3.188;2023-05-20T07:29:45;102401.16;;;9.31;100.00
60817;BME280;51921;51.518;-3.188;2023-05-20T07:32:11;102399.17;;;9.60;100.00
60817;BME280;51921;51.518;-3.188;2023-05-20T07:34:36;102396.42;;;10.23;93.87
60817;BME280;51921;51.518;-3.188;2023-05-20T07:37:01;102402.77;;;10.04;92.06
60817;BME280;51921;51.518;-3.188;2023-05-20T07:39:27;102405.57;;;9.67;92.97
60817;BME280;51921;51.518;-3.188;2023-05-20T07:41:52;102404.84;;;9.79;96.95
60817;BME280;51921;51.518;-3.188;2023-05-20T07:44:18;102394.18;;;10.17;90.95
60817;BME280;51921;51.518;-3.188;2023-05-20T07:46:48;102400.32;;;9.58;92.93
60817;BME280;51921;51.518;-3.188;2023-05-20T07:49:09;102396.67;;;9.77;90.43
60817;BME280;51921;51.518;-3.188;2023-05-20T07:51:35;102395.85;;;9.03;98.96
60817;BME280;51921;51.518;-3.188;2023-05-20T07:54:00;102397.52;;;9.25;98.13
60817;BME280;51921;51.518;-3.188;2023-05-20T07:56:25;102398.79;;;9.97;92.10
60817;BME280;51921;51.518;-3.188;2023-05-20T07:58:52;102397.72;;;9.93;90.04
60817;BME280;51921;51.518;-3.188;2023-05-20T08:01:16;102390.02;;;9.19;92.39
60817;BME280;51921;51.518;-3.188;2023-05-20T08:03:41;102391.19;;;10.34;82.60
60817;BME280;51921;51.518;-3.188;2023-05-20T08:06:06;102387.26;;;10.22;80.45
60817;BME280;51921;51.518;-3.188;2023-05-20T08:08:32;102390.39;;;10.09;83.85
60817;BME280;51921;51.518;-3.188;2023-05-20T08:10:57;102391.13;;;9.17;93.93
60817;BME280;51921;51.518;-3.188;2023-05-20T08:13:24;102387.23;;;10.06;91.97
60817;BME280;51921;51.518;-3.188;2023-05-20T08:15:48;102395.58;;;9.99;86.60
60817;BME280;51921;51.518;-3.188;2023-05-20T08:18:13;102391.71;;;10.36;90.44
60817;BME280;51921;51.518;-3.188;2023-05-20T08:20:38;102387.14;;;9.93;92.14
60817;BME280;51921;51.518;-3.188;2023-05-20T08:23:04;102385.17;;;9.25;97.67
60817;BME280;51921;51.518;-3.188;2023-05-20T08:25:29;102385.35;;;10.02;95.18
60817;BME280;51921;51.518;-3.188;2023-05-20T08:27:54;102379.19;;;10.50;90.76
60817;BME280;51921;51.518;-3.188;2023-05-20T08:30:20;102381.19;;;10.99;83.98
60817;BME280;51921;51.518;-3.188;2023-05-20T08:32:45;102393.43;;;9.81;89.15
60817;BME280;51921;51.518;-3.188;2023-05-20T08:35:11;102386.20;;;9.81;89.42
60817;BME280;51921;51.518;-3.188;2023-05-20T08:37:36;102383.80;;;9.37;90.13
60817;BME280;51921;51.518;-3.188;2023-05-20T08:40:02;102385.08;;;9.48;90.78
60817;BME280;51921;51.518;-3.188;2023-05-20T08:42:27;102382.66;;;9.61;90.10
60817;BME280;51921;51.518;-3.188;2023-05-20T08:44:53;102382.97;;;10.16;83.65
60817;BME280;51921;51.518;-3.188;2023-05-20T08:47:19;102375.82;;;11.17;81.46
60817;BME280;51921;51.518;-3.188;2023-05-20T08:49:43;102377.91;;;10.28;81.35
60817;BME280;51921;51.518;-3.188;2023-05-20T08:52:09;102381.61;;;10.70;83.00
60817;BME280;51921;51.518;-3.188;2023-05-20T08:54:42;102384.05;;;9.83;88.72
60817;BME280;51921;51.518;-3.188;2023-05-20T08:56:59;102386.18;;;10.06;88.55
60817;BME280;51921;51.518;-3.188;2023-05-20T08:59:25;102385.77;;;10.14;88.93
60817;BME280;51921;51.518;-3.188;2023-05-20T09:01:50;102380.91;;;10.64;82.94
60817;BME280;51921;51.518;-3.188;2023-05-20T09:04:21;102379.38;;;11.13;77.06
60817;BME280;51921;51.518;-3.188;2023-05-20T09:06:42;102378.29;;;10.18;80.61
60817;BME280;51921;51.518;-3.188;2023-05-20T09:09:07;102386.47;;;9.94;86.89
60817;BME280;51921;51.518;-3.188;2023-05-20T09:11:32;102379.30;;;10.17;87.50
60817;BME280;51921;51.518;-3.188;2023-05-20T09:13:58;102376.17;;;10.59;86.13
60817;BME280;51921;51.518;-3.188;2023-05-20T09:16:24;102369.55;;;10.34;83.25
60817;BME280;51921;51.518;-3.188;2023-05-20T09:18:48;102363.02;;;10.20;82.53
60817;BME280;51921;51.518;-3.188;2023-05-20T09:21:14;102362.62;;;10.61;81.46
60817;BME280;51921;51.518;-3.188;2023-05-20T09:23:39;102355.24;;;10.32;80.00
60817;BME280;51921;51.518;-3.188;2023-05-20T09:26:04;102358.18;;;10.87;80.22
60817;BME280;51921;51.518;-3.188;2023-05-20T09:28:30;102359.74;;;10.70;77.39
60817;BME280;51921;51.518;-3.188;2023-05-20T09:30:57;102355.30;;;10.32;82.53
60817;BME280;51921;51.518;-3.188;2023-05-20T09:33:26;102359.00;;;10.87;78.13
60817;BME280;51921;51.518;-3.188;2023-05-20T09:35:46;102349.63;;;10.75;77.59
60817;BME280;51921;51.518;-3.188;2023-05-20T09:38:12;102351.20;;;10.90;79.27
60817;BME280;51921;51.518;-3.188;2023-05-20T09:40:37;102348.33;;;10.30;78.63
60817;BME280;51921;51.518;-3.188;2023-05-20T09:43:03;102339.06;;;10.64;83.86
60817;BME280;51921;51.518;-3.188;2023-05-20T09:45:28;102345.26;;;11.03;79.30
60817;BME280;51921;51.518;-3.188;2023-05-20T09:47:53;102337.65;;;10.44;82.28
60817;BME280;51921;51.518;-3.188;2023-05-20T09:50:19;102341.76;;;10.90;78.44
60817;BME280;51921;51.518;-3.188;2023-05-20T09:52:44;102336.27;;;11.27;74.11
60817;BME280;51921;51.518;-3.188;2023-05-20T09:55:09;102333.76;;;10.57;74.21
60817;BME280;51921;51.518;-3.188;2023-05-20T09:57:36;102336.43;;;10.60;77.44
60817;BME280;51921;51.518;-3.188;2023-05-20T10:00:01;102329.32;;;10.77;77.98
60817;BME280;51921;51.518;-3.188;2023-05-20T10:02:26;102328.71;;;10.71;75.31
60817;BME280;51921;51.518;-3.188;2023-05-20T10:04:53;102336.76;;;10.82;68.17
60817;BME280;51921;51.518;-3.188;2023-05-20T10:07:31;102327.99;;;11.54;68.28
60817;BME280;51921;51.518;-3.188;2023-05-20T10:09:50;102333.65;;;11.80;65.55
60817;BME280;51921;51.518;-3.188;2023-05-20T10:12:15;102323.88;;;12.32;65.40
60817;BME280;51921;51.518;-3.188;2023-05-20T10:14:42;102334.72;;;10.92;67.98
60817;BME280;51921;51.518;-3.188;2023-05-20T10:17:05;102338.36;;;11.17;68.52
60817;BME280;51921;51.518;-3.188;2023-05-20T10:19:27;102333.85;;;11.25;70.15
60817;BME280;51921;51.518;-3.188;2023-05-20T10:21:58;102327.88;;;10.86;69.92
60817;BME280;51921;51.518;-3.188;2023-05-20T10:24:14;102335.54;;;11.21;65.76
60817;BME280;51921;51.518;-3.188;2023-05-20T10:26:41;102333.96;;;11.71;66.81
60817;BME280;51921;51.518;-3.188;2023-05-20T10:29:14;102340.63;;;11.65;67.10
60817;BME280;51921;51.518;-3.188;2023-05-20T10:31:31;102329.86;;;10.93;69.22
60817;BME280;51921;51.518;-3.188;2023-05-20T10:33:58;102329.17;;;11.73;68.46
60817;BME280;51921;51.518;-3.188;2023-05-20T10:36:22;102318.90;;;11.09;67.52
60817;BME280;51921;51.518;-3.188;2023-05-20T10:38:51;102321.51;;;11.15;67.93
60817;BME280;51921;51.518;-3.188;2023-05-20T10:41:13;102315.83;;;11.65;65.95
60817;BME280;51921;51.518;-3.188;2023-05-20T10:43:38;102323.19;;;11.20;65.17
60817;BME280;51921;51.518;-3.188;2023-05-20T10:46:04;102315.37;;;11.72;62.88
60817;BME280;51921;51.518;-3.188;2023-05-20T10:48:30;102324.12;;;11.14;62.74
60817;BME280;51921;51.518;-3.188;2023-05-20T10:50:55;102314.14;;;11.28;60.23
60817;BME280;51921;51.518;-3.188;2023-05-20T10:53:22;102315.66;;;12.15;62.31
60817;BME280;51921;51.518;-3.188;2023-05-20T10:55:48;102304.78;;;11.57;61.61
60817;BME280;51921;51.518;-3.188;2023-05-20T10:58:11;102298.03;;;11.84;62.15
60817;BME280;51921;51.518;-3.188;2023-05-20T11:00:37;102312.11;;;12.11;61.09
60817;BME280;51921;51.518;-3.188;2023-05-20T11:03:03;102297.53;;;11.67;63.42
60817;BME280;51921;51.518;-3.188;2023-05-20T11:05:28;102296.23;;;12.44;59.66
60817;BME280;51921;51.518;-3.188;2023-05-20T11:08:00;102289.32;;;12.69;56.31
60817;BME280;51921;51.518;-3.188;2023-05-20T11:10:21;102290.01;;;12.04;58.84
60817;BME280;51921;51.518;-3.188;2023-05-20T11:12:43;102284.98;;;13.31;58.85
60817;BME280;51921;51.518;-3.188;2023-05-20T11:15:10;102281.47;;;11.67;61.88
60817;BME280;51921;51.518;-3.188;2023-05-20T11:17:34;102281.43;;;12.30;62.31
60817;BME280;51921;51.518;-3.188;2023-05-20T11:19:59;102278.12;;;12.92;61.23
60817;BME280;51921;51.518;-3.188;2023-05-20T11:22:25;102277.85;;;12.89;59.42
60817;BME280;51921;51.518;-3.188;2023-05-20T11:24:50;102282.18;;;11.72;63.93
60817;BME280;51921;51.518;-3.188;2023-05-20T11:27:15;102276.94;;;11.68;64.32
60817;BME280;51921;51.518;-3.188;2023-05-20T11:29:41;102266.59;;;13.11;60.00
60817;BME280;51921;51.518;-3.188;2023-05-20T11:32:07;102272.87;;;12.73;55.69
60817;BME280;51921;51.518;-3.188;2023-05-20T11:34:33;102268.89;;;12.56;52.23
60817;BME280;51921;51.518;-3.188;2023-05-20T11:36:57;102280.29;;;12.81;45.35
60817;BME280;51921;51.518;-3.188;2023-05-20T11:39:24;102265.06;;;12.19;46.39
60817;BME280;51921;51.518;-3.188;2023-05-20T11:41:48;102253.59;;;13.15;43.93
60817;BME280;51921;51.518;-3.188;2023-05-20T11:44:13;102258.01;;;13.86;42.74
60817;BME280;51921;51.518;-3.188;2023-05-20T11:46:42;102266.36;;;11.97;44.15
60817;BME280;51921;51.518;-3.188;2023-05-20T11:49:05;102257.20;;;12.56;44.34
60817;BME280;51921;51.518;-3.188;2023-05-20T11:51:29;102257.77;;;12.49;43.32
60817;BME280;51921;51.518;-3.188;2023-05-20T11:53:58;102253.25;;;12.81;43.57
60817;BME280;51921;51.518;-3.188;2023-05-20T11:56:20;102251.67;;;12.64;40.19
60817;BME280;51921;51.518;-3.188;2023-05-20T11:58:46;102247.95;;;12.51;40.89
60817;BME280;51921;51.518;-3.188;2023-05-20T12:01:11;102246.71;;;12.74;41.63
60817;BME280;51921;51.518;-3.188;2023-05-20T12:03:36;102245.63;;;13.23;40.97
60817;BME280;51921;51.518;-3.188;2023-05-20T12:06:02;102245.35;;;12.89;41.00
60817;BME280;51921;51.518;-3.188;2023-05-20T12:08:27;102234.46;;;13.75;42.23
60817;BME280;51921;51.518;-3.188;2023-05-20T12:10:53;102233.27;;;14.17;41.81
60817;BME280;51921;51.518;-3.188;2023-05-20T12:13:18;102228.12;;;13.89;39.53
60817;BME280;51921;51.518;-3.188;2023-05-20T12:15:43;102226.87;;;13.35;40.70
60817;BME280;51921;51.518;-3.188;2023-05-20T12:18:09;102227.99;;;14.16;41.18
60817;BME280;51921;51.518;-3.188;2023-05-20T12:20:34;102221.11;;;13.79;40.25
60817;BME280;51921;51.518;-3.188;2023-05-20T12:23:00;102227.75;;;13.05;41.08
60817;BME280;51921;51.518;-3.188;2023-05-20T12:25:25;102223.96;;;13.06;37.44
60817;BME280;51921;51.518;-3.188;2023-05-20T12:27:51;102222.26;;;13.20;39.66
60817;BME280;51921;51.518;-3.188;2023-05-20T12:30:17;102216.85;;;14.40;39.25